createdAt,value
2023-04-08T00:00:40.229Z,455.00
2023-04-08T00:01:40.334Z,452.00
2023-04-08T00:02:40.325Z,452.00
2023-04-08T00:03:40.468Z,454.00
2023-04-08T00:04:40.370Z,455.00
2023-04-08T00:05:40.442Z,457.00
2023-04-08T00:06:40.439Z,456.00
2023-04-08T00:07:40.510Z,457.00
2023-04-08T00:08:40.561Z,458.00
2023-04-08T00:09:40.620Z,459.00
2023-04-08T00:10:40.619Z,460.00
2023-04-08T00:11:40.667Z,457.00
2023-04-08T00:12:40.703Z,456.00
2023-04-08T00:13:40.775Z,456.00
2023-04-08T00:14:40.803Z,456.00
2023-04-08T00:15:40.861Z,455.00
2023-04-08T00:16:40.944Z,455.00
2023-04-08T00:17:40.964Z,453.00
2023-04-08T00:18:40.982Z,455.00
2023-04-08T00:19:41.033Z,454.00
2023-04-08T00:20:41.110Z,452.00
2023-04-08T00:21:41.125Z,454.00
2023-04-08T00:22:41.145Z,456.00
2023-04-08T00:23:41.222Z,455.00
2023-04-08T00:24:41.276Z,454.00
2023-04-08T00:25:41.268Z,455.00
2023-04-08T00:26:41.298Z,455.00
2023-04-08T00:27:41.416Z,456.00
2023-04-08T00:28:41.401Z,458.00
2023-04-08T00:29:41.427Z,457.00
2023-04-08T00:30:41.540Z,456.00
2023-04-08T00:31:41.514Z,455.00
2023-04-08T00:32:41.613Z,455.00
2023-04-08T00:33:41.608Z,454.00
2023-04-08T00:34:41.635Z,454.00
2023-04-08T00:35:41.744Z,454.00
2023-04-08T00:36:41.735Z,452.00
2023-04-08T00:37:41.782Z,452.00
2023-04-08T00:38:41.856Z,454.00
2023-04-08T00:39:42.210Z,457.00
2023-04-08T00:40:41.938Z,457.00
2023-04-08T00:41:41.987Z,455.00
2023-04-08T00:42:42.023Z,457.00
2023-04-08T00:43:42.088Z,456.00
2023-04-08T00:44:42.103Z,456.00
2023-04-08T00:45:42.176Z,455.00
2023-04-08T00:46:42.218Z,456.00
2023-04-08T00:47:42.299Z,458.00
2023-04-08T00:48:42.311Z,457.00
2023-04-08T00:49:42.315Z,455.00
2023-04-08T00:50:42.344Z,452.00
2023-04-08T00:51:42.419Z,451.00
2023-04-08T00:52:42.429Z,451.00
2023-04-08T00:53:42.496Z,452.00
2023-04-08T00:54:42.536Z,449.00
2023-04-08T00:55:42.570Z,448.00
2023-04-08T00:56:42.631Z,446.00
2023-04-08T00:57:42.646Z,443.00
2023-04-08T00:58:42.680Z,443.00
2023-04-08T00:59:42.749Z,445.00
2023-04-08T01:00:42.805Z,446.00
2023-04-08T01:01:42.958Z,446.00
2023-04-08T01:02:42.970Z,446.00
2023-04-08T01:03:43.109Z,446.00
2023-04-08T01:04:42.978Z,447.00
2023-04-08T01:05:42.978Z,448.00
2023-04-08T01:06:43.054Z,448.00
2023-04-08T01:07:43.097Z,448.00
2023-04-08T01:08:43.129Z,451.00
2023-04-08T01:09:43.177Z,452.00
2023-04-08T01:10:43.230Z,451.00
2023-04-08T01:11:43.276Z,452.00
2023-04-08T01:12:43.315Z,450.00
2023-04-08T01:13:43.369Z,451.00
2023-04-08T01:14:43.395Z,452.00
2023-04-08T01:15:43.462Z,452.00
2023-04-08T01:16:43.491Z,450.00
2023-04-08T01:17:43.575Z,450.00
2023-04-08T01:18:43.609Z,452.00
2023-04-08T01:19:43.646Z,453.00
2023-04-08T01:20:43.672Z,453.00
2023-04-08T01:21:43.709Z,452.00
2023-04-08T01:22:43.754Z,452.00
2023-04-08T01:23:43.800Z,454.00
2023-04-08T01:24:43.929Z,455.00
2023-04-08T01:25:43.903Z,456.00
2023-04-08T01:26:43.949Z,455.00
2023-04-08T01:27:43.974Z,455.00
2023-04-08T01:28:44.053Z,455.00
2023-04-08T01:29:44.084Z,455.00
2023-04-08T01:30:44.099Z,456.00
2023-04-08T01:31:44.154Z,458.00
2023-04-08T01:32:44.216Z,459.00
2023-04-08T01:33:44.201Z,458.00
2023-04-08T01:34:44.268Z,459.00
2023-04-08T01:35:44.314Z,457.00
2023-04-08T01:36:44.308Z,459.00
2023-04-08T01:37:44.338Z,459.00
2023-04-08T01:38:44.429Z,461.00
2023-04-08T01:39:44.427Z,462.00
2023-04-08T01:40:44.529Z,462.00
2023-04-08T01:41:44.546Z,463.00
2023-04-08T01:42:44.578Z,461.00
2023-04-08T01:43:44.629Z,458.00
2023-04-08T01:44:44.679Z,458.00
2023-04-08T01:45:44.725Z,461.00
2023-04-08T01:46:44.788Z,462.00
2023-04-08T01:47:44.864Z,462.00
2023-04-08T01:48:44.867Z,459.00
2023-04-08T01:49:44.899Z,460.00
2023-04-08T01:50:44.944Z,459.00
2023-04-08T01:51:44.937Z,459.00
2023-04-08T01:52:45.007Z,459.00
2023-04-08T01:53:45.028Z,459.00
2023-04-08T01:54:45.110Z,458.00
2023-04-08T01:55:45.156Z,456.00
2023-04-08T01:56:45.269Z,456.00
2023-04-08T01:57:45.222Z,457.00
2023-04-08T01:58:45.251Z,457.00
2023-04-08T01:59:45.300Z,459.00
2023-04-08T02:00:45.357Z,459.00
2023-04-08T02:01:45.521Z,456.00
2023-04-08T02:02:45.592Z,455.00
2023-04-08T02:03:45.517Z,456.00
2023-04-08T02:04:45.642Z,454.00
2023-04-08T02:05:45.606Z,457.00
2023-04-08T02:06:45.599Z,458.00
2023-04-08T02:07:45.667Z,456.00
2023-04-08T02:08:45.673Z,456.00
2023-04-08T02:09:45.743Z,454.00
2023-04-08T02:10:45.781Z,454.00
2023-04-08T02:11:45.847Z,455.00
2023-04-08T02:12:45.895Z,453.00
2023-04-08T02:13:45.924Z,454.00
2023-04-08T02:14:45.970Z,454.00
2023-04-08T02:15:46.025Z,452.00
2023-04-08T02:16:46.133Z,452.00
2023-04-08T02:17:46.163Z,452.00
2023-04-08T02:18:46.182Z,456.00
2023-04-08T02:19:46.211Z,455.00
2023-04-08T02:20:46.260Z,452.00
2023-04-08T02:21:46.303Z,454.00
2023-04-08T02:22:46.355Z,455.00
2023-04-08T02:23:46.391Z,457.00
2023-04-08T02:24:46.445Z,456.00
2023-04-08T02:25:46.504Z,457.00
2023-04-08T02:26:46.519Z,457.00
2023-04-08T02:27:46.584Z,458.00
2023-04-08T02:28:46.600Z,459.00
2023-04-08T02:29:46.691Z,460.00
2023-04-08T02:30:46.746Z,460.00
2023-04-08T02:31:46.772Z,458.00
2023-04-08T02:32:46.847Z,460.00
2023-04-08T02:33:46.864Z,461.00
2023-04-08T02:34:46.918Z,461.00
2023-04-08T02:35:47.017Z,457.00
2023-04-08T02:36:47.033Z,457.00
2023-04-08T02:37:47.065Z,456.00
2023-04-08T02:38:47.094Z,457.00
2023-04-08T02:39:47.161Z,457.00
2023-04-08T02:40:47.229Z,453.00
2023-04-08T02:41:47.283Z,453.00
2023-04-08T02:42:47.320Z,452.00
2023-04-08T02:43:47.374Z,451.00
2023-04-08T02:44:47.437Z,449.00
2023-04-08T02:45:47.534Z,448.00
2023-04-08T02:46:47.537Z,448.00
2023-04-08T02:47:47.618Z,447.00
2023-04-08T02:48:47.825Z,447.00
2023-04-08T02:49:47.686Z,450.00
2023-04-08T02:50:47.702Z,450.00
2023-04-08T02:51:47.790Z,450.00
2023-04-08T02:52:47.840Z,449.00
2023-04-08T02:53:47.866Z,451.00
2023-04-08T02:54:47.941Z,451.00
2023-04-08T02:55:47.977Z,449.00
2023-04-08T02:56:48.037Z,449.00
2023-04-08T02:57:48.084Z,451.00
2023-04-08T02:58:48.496Z,454.00
2023-04-08T02:59:48.187Z,454.00
2023-04-08T03:00:48.239Z,455.00
2023-04-08T03:01:48.393Z,457.00
2023-04-08T03:02:48.507Z,458.00
2023-04-08T03:03:48.543Z,458.00
2023-04-08T03:04:48.434Z,458.00
2023-04-08T03:05:48.616Z,459.00
2023-04-08T03:06:48.532Z,459.00
2023-04-08T03:07:48.599Z,460.00
2023-04-08T03:08:48.735Z,461.00
2023-04-08T03:09:48.695Z,461.00
2023-04-08T03:10:48.737Z,461.00
2023-04-08T03:11:48.776Z,462.00
2023-04-08T03:12:48.840Z,464.00
2023-04-08T03:13:48.899Z,467.00
2023-04-08T03:14:48.949Z,466.00
2023-04-08T03:15:48.988Z,463.00
2023-04-08T03:16:49.040Z,461.00
2023-04-08T03:17:49.145Z,461.00
2023-04-08T03:18:49.420Z,461.00
2023-04-08T03:19:49.176Z,462.00
2023-04-08T03:20:49.237Z,463.00
2023-04-08T03:21:49.294Z,465.00
2023-04-08T03:22:49.355Z,464.00
2023-04-08T03:23:49.387Z,466.00
2023-04-08T03:24:49.441Z,466.00
2023-04-08T03:25:49.489Z,464.00
2023-04-08T03:26:49.520Z,462.00
2023-04-08T03:27:49.602Z,460.00
2023-04-08T03:28:49.935Z,460.00
2023-04-08T03:29:49.680Z,460.00
2023-04-08T03:30:49.764Z,458.00
2023-04-08T03:31:49.790Z,458.00
2023-04-08T03:32:49.898Z,454.00
2023-04-08T03:33:49.876Z,455.00
2023-04-08T03:34:49.939Z,456.00
2023-04-08T03:35:50.040Z,455.00
2023-04-08T03:36:50.043Z,452.00
2023-04-08T03:37:50.063Z,451.00
2023-04-08T03:38:50.305Z,450.00
2023-04-08T03:39:50.179Z,450.00
2023-04-08T03:40:50.260Z,449.00
2023-04-08T03:41:50.288Z,449.00
2023-04-08T03:42:50.369Z,450.00
2023-04-08T03:43:50.395Z,452.00
2023-04-08T03:44:51.245Z,454.00
2023-04-08T03:45:50.547Z,451.00
2023-04-08T03:46:50.514Z,452.00
2023-04-08T03:47:50.602Z,454.00
2023-04-08T03:48:50.805Z,455.00
2023-04-08T03:49:50.704Z,456.00
2023-04-08T03:50:50.754Z,455.00
2023-04-08T03:51:50.820Z,456.00
2023-04-08T03:52:50.878Z,456.00
2023-04-08T03:53:50.938Z,451.00
2023-04-08T03:54:50.997Z,451.00
2023-04-08T03:55:51.041Z,451.00
2023-04-08T03:56:51.091Z,454.00
2023-04-08T03:57:51.183Z,455.00
2023-04-08T03:58:51.379Z,457.00
2023-04-08T03:59:51.258Z,453.00
2023-04-08T04:00:51.300Z,451.00
2023-04-08T04:01:51.441Z,448.00
2023-04-08T04:02:51.440Z,450.00
2023-04-08T04:03:51.511Z,448.00
2023-04-08T04:04:51.511Z,448.00
2023-04-08T04:05:51.460Z,450.00
2023-04-08T04:06:51.483Z,449.00
2023-04-08T04:07:51.569Z,449.00
2023-04-08T04:08:51.785Z,450.00
2023-04-08T04:09:51.593Z,449.00
2023-04-08T04:10:51.654Z,453.00
2023-04-08T04:11:51.707Z,455.00
2023-04-08T04:12:51.751Z,454.00
2023-04-08T04:13:51.817Z,453.00
2023-04-08T04:14:51.971Z,452.00
2023-04-08T04:15:51.992Z,453.00
2023-04-08T04:16:51.949Z,453.00
2023-04-08T04:17:52.079Z,455.00
2023-04-08T04:18:52.393Z,455.00
2023-04-08T04:19:52.165Z,455.00
2023-04-08T04:20:52.241Z,456.00
2023-04-08T04:21:52.263Z,455.00
2023-04-08T04:22:52.305Z,454.00
2023-04-08T04:23:52.352Z,453.00
2023-04-08T04:24:52.417Z,453.00
2023-04-08T04:25:52.487Z,455.00
2023-04-08T04:26:52.513Z,457.00
2023-04-08T04:27:52.600Z,457.00
2023-04-08T04:28:52.812Z,456.00
2023-04-08T04:29:52.651Z,453.00
2023-04-08T04:30:54.102Z,453.00
2023-04-08T04:31:52.858Z,452.00
2023-04-08T04:32:52.939Z,453.00
2023-04-08T04:33:52.972Z,455.00
2023-04-08T04:34:53.033Z,455.00
2023-04-08T04:35:53.079Z,453.00
2023-04-08T04:36:53.127Z,453.00
2023-04-08T04:37:53.175Z,453.00
2023-04-08T04:38:54.150Z,455.00
2023-04-08T04:39:53.370Z,454.00
2023-04-08T04:40:53.347Z,454.00
2023-04-08T04:41:53.408Z,452.00
2023-04-08T04:42:53.491Z,451.00
2023-04-08T04:43:53.529Z,452.00
2023-04-08T04:44:53.586Z,450.00
2023-04-08T04:45:53.642Z,451.00
2023-04-08T04:46:53.820Z,451.00
2023-04-08T04:47:53.836Z,449.00
2023-04-08T04:48:53.791Z,450.00
2023-04-08T04:49:53.883Z,449.00
2023-04-08T04:50:53.922Z,451.00
2023-04-08T04:51:53.968Z,450.00
2023-04-08T04:52:53.999Z,450.00
2023-04-08T04:53:54.067Z,449.00
2023-04-08T04:54:54.112Z,449.00
2023-04-08T04:55:54.147Z,451.00
2023-04-08T04:56:54.230Z,452.00
2023-04-08T04:57:54.256Z,453.00
2023-04-08T04:58:54.355Z,456.00
2023-04-08T04:59:54.419Z,456.00
2023-04-08T05:00:54.441Z,456.00
2023-04-08T05:01:54.601Z,458.00
2023-04-08T05:02:54.658Z,460.00
2023-04-08T05:03:54.632Z,456.00
2023-04-08T05:04:54.711Z,454.00
2023-04-08T05:05:54.741Z,454.00
2023-04-08T05:06:54.752Z,457.00
2023-04-08T05:07:54.816Z,456.00
2023-04-08T05:08:54.874Z,454.00
2023-04-08T05:09:54.947Z,454.00
2023-04-08T05:10:55.014Z,452.00
2023-04-08T05:11:55.096Z,453.00
2023-04-08T05:12:55.121Z,454.00
2023-04-08T05:13:55.187Z,455.00
2023-04-08T05:14:55.249Z,454.00
2023-04-08T05:15:55.330Z,456.00
2023-04-08T05:16:55.364Z,459.00
2023-04-08T05:17:55.551Z,459.00
2023-04-08T05:18:55.480Z,461.00
2023-04-08T05:19:55.545Z,460.00
2023-04-08T05:20:55.623Z,458.00
2023-04-08T05:21:55.678Z,458.00
2023-04-08T05:22:55.717Z,457.00
2023-04-08T05:23:55.764Z,456.00
2023-04-08T05:24:55.812Z,452.00
2023-04-08T05:25:55.883Z,452.00
2023-04-08T05:26:55.941Z,451.00
2023-04-08T05:27:55.983Z,451.00
2023-04-08T05:28:56.072Z,454.00
2023-04-08T05:29:56.128Z,456.00
2023-04-08T05:30:56.170Z,456.00
2023-04-08T05:31:56.267Z,459.00
2023-04-08T05:32:58.518Z,457.00
2023-04-08T05:33:56.273Z,457.00
2023-04-08T05:34:56.238Z,456.00
2023-04-08T05:35:56.270Z,457.00
2023-04-08T05:36:56.262Z,458.00
2023-04-08T05:37:56.282Z,458.00
2023-04-08T05:38:56.228Z,460.00
2023-04-08T05:39:56.229Z,460.00
2023-04-08T05:40:56.249Z,461.00
2023-04-08T05:41:56.245Z,460.00
2023-04-08T05:42:56.234Z,461.00
2023-04-08T05:43:56.194Z,460.00
2023-04-08T05:44:56.191Z,460.00
2023-04-08T05:45:56.207Z,457.00
2023-04-08T05:46:56.247Z,458.00
2023-04-08T05:47:56.220Z,459.00
2023-04-08T05:48:56.181Z,459.00
2023-04-08T05:49:56.155Z,460.00
2023-04-08T05:50:56.184Z,460.00
2023-04-08T05:51:56.184Z,461.00
2023-04-08T05:52:56.144Z,459.00
2023-04-08T05:53:56.159Z,459.00
2023-04-08T05:54:56.140Z,460.00
2023-04-08T05:55:56.157Z,461.00
2023-04-08T05:56:56.101Z,462.00
2023-04-08T05:57:56.090Z,462.00
2023-04-08T05:58:56.132Z,463.00
2023-04-08T05:59:56.116Z,464.00
2023-04-08T06:00:56.121Z,464.00
2023-04-08T06:01:56.296Z,464.00
2023-04-08T06:02:56.393Z,463.00
2023-04-08T06:03:56.614Z,464.00
2023-04-08T06:04:56.396Z,464.00
2023-04-08T06:05:56.395Z,464.00
2023-04-08T06:06:56.473Z,463.00
2023-04-08T06:07:56.522Z,464.00
2023-04-08T06:08:56.593Z,463.00
2023-04-08T06:09:56.624Z,465.00
2023-04-08T06:10:56.724Z,465.00
2023-04-08T06:11:56.739Z,463.00
2023-04-08T06:12:56.813Z,462.00
2023-04-08T06:13:56.868Z,463.00
2023-04-08T06:14:56.922Z,463.00
2023-04-08T06:15:57.007Z,465.00
2023-04-08T06:16:57.227Z,466.00
2023-04-08T06:17:57.129Z,467.00
2023-04-08T06:18:57.163Z,467.00
2023-04-08T06:19:57.240Z,467.00
2023-04-08T06:20:57.288Z,469.00
2023-04-08T06:21:57.345Z,467.00
2023-04-08T06:22:57.392Z,465.00
2023-04-08T06:23:57.469Z,464.00
2023-04-08T06:24:57.516Z,463.00
2023-04-08T06:25:57.579Z,462.00
2023-04-08T06:26:57.616Z,461.00
2023-04-08T06:27:57.686Z,461.00
2023-04-08T06:28:57.728Z,460.00
2023-04-08T06:29:57.757Z,459.00
2023-04-08T06:30:58.003Z,461.00
2023-04-08T06:31:57.912Z,460.00
2023-04-08T06:32:57.997Z,462.00
2023-04-08T06:33:57.996Z,461.00
2023-04-08T06:34:58.050Z,458.00
2023-04-08T06:35:58.124Z,458.00
2023-04-08T06:36:58.167Z,460.00
2023-04-08T06:37:58.208Z,460.00
2023-04-08T06:38:58.235Z,459.00
2023-04-08T06:39:58.305Z,459.00
2023-04-08T06:40:58.345Z,458.00
2023-04-08T06:41:58.412Z,459.00
2023-04-08T06:42:58.436Z,460.00
2023-04-08T06:43:58.473Z,462.00
2023-04-08T06:44:58.639Z,463.00
2023-04-08T06:45:58.597Z,464.00
2023-04-08T06:46:58.627Z,465.00
2023-04-08T06:47:58.721Z,464.00
2023-04-08T06:48:58.694Z,463.00
2023-04-08T06:49:58.706Z,462.00
2023-04-08T06:50:58.779Z,461.00
2023-04-08T06:51:58.797Z,458.00
2023-04-08T06:52:58.818Z,458.00
2023-04-08T06:53:58.849Z,457.00
2023-04-08T06:54:58.902Z,458.00
2023-04-08T06:55:58.966Z,461.00
2023-04-08T06:56:58.986Z,460.00
2023-04-08T06:57:59.012Z,462.00
2023-04-08T06:58:59.031Z,463.00
2023-04-08T06:59:59.092Z,464.00
2023-04-08T07:00:59.178Z,464.00
2023-04-08T07:01:59.297Z,464.00
2023-04-08T07:02:59.274Z,465.00
2023-04-08T07:03:59.284Z,466.00
2023-04-08T07:04:59.276Z,465.00
2023-04-08T07:05:59.354Z,463.00
2023-04-08T07:06:59.345Z,463.00
2023-04-08T07:07:59.412Z,462.00
2023-04-08T07:08:59.456Z,463.00
2023-04-08T07:09:59.441Z,464.00
2023-04-08T07:10:59.497Z,461.00
2023-04-08T07:11:59.544Z,463.00
2023-04-08T07:12:59.589Z,465.00
2023-04-08T07:13:59.828Z,465.00
2023-04-08T07:14:59.658Z,463.00
2023-04-08T07:15:59.794Z,461.00
2023-04-08T07:16:59.783Z,461.00
2023-04-08T07:17:59.843Z,458.00
2023-04-08T07:18:59.797Z,458.00
2023-04-08T07:19:59.832Z,458.00
2023-04-08T07:20:59.865Z,460.00
2023-04-08T07:21:59.887Z,462.00
2023-04-08T07:22:59.922Z,461.00
2023-04-08T07:23:59.969Z,462.00
2023-04-08T07:24:59.998Z,464.00
2023-04-08T07:26:00.030Z,463.00
2023-04-08T07:27:00.096Z,466.00
2023-04-08T07:28:00.138Z,466.00
2023-04-08T07:29:00.120Z,467.00
2023-04-08T07:30:00.173Z,467.00
2023-04-08T07:31:00.213Z,465.00
2023-04-08T07:32:00.231Z,464.00
2023-04-08T07:33:00.988Z,463.00
2023-04-08T07:34:00.262Z,463.00
2023-04-08T07:35:00.330Z,462.00
2023-04-08T07:36:00.365Z,462.00
2023-04-08T07:37:00.380Z,460.00
2023-04-08T07:38:00.377Z,460.00
2023-04-08T07:39:00.453Z,460.00
2023-04-08T07:40:00.456Z,462.00
2023-04-08T07:41:00.498Z,458.00
2023-04-08T07:42:00.533Z,454.00
2023-04-08T07:43:00.604Z,453.00
2023-04-08T07:44:00.582Z,455.00
2023-04-08T07:45:00.626Z,453.00
2023-04-08T07:46:00.661Z,453.00
2023-04-08T07:47:00.693Z,456.00
2023-04-08T07:48:00.709Z,459.00
2023-04-08T07:49:00.775Z,459.00
2023-04-08T07:50:00.762Z,459.00
2023-04-08T07:51:10.125Z,459.00
2023-04-08T07:52:01.797Z,460.00
2023-04-08T07:53:00.775Z,463.00
2023-04-08T07:54:00.787Z,464.00
2023-04-08T07:55:00.791Z,462.00
2023-04-08T07:56:00.801Z,460.00
2023-04-08T07:57:00.781Z,461.00
2023-04-08T07:58:00.757Z,460.00
2023-04-08T07:59:00.778Z,459.00
2023-04-08T08:00:00.753Z,459.00
2023-04-08T08:01:00.736Z,460.00
2023-04-08T08:02:00.736Z,458.00
2023-04-08T08:03:00.797Z,460.00
2023-04-08T08:04:00.927Z,461.00
2023-04-08T08:05:00.852Z,462.00
2023-04-08T08:06:00.747Z,462.00
2023-04-08T08:07:00.774Z,461.00
2023-04-08T08:08:00.775Z,464.00
2023-04-08T08:09:00.832Z,465.00
2023-04-08T08:10:00.848Z,463.00
2023-04-08T08:11:00.893Z,461.00
2023-04-08T08:12:00.910Z,460.00
2023-04-08T08:13:00.978Z,460.00
2023-04-08T08:14:00.993Z,462.00
2023-04-08T08:15:01.014Z,465.00
2023-04-08T08:16:01.062Z,463.00
2023-04-08T08:17:01.039Z,464.00
2023-04-08T08:18:01.120Z,463.00
2023-04-08T08:19:01.059Z,465.00
2023-04-08T08:20:01.126Z,464.00
2023-04-08T08:21:01.131Z,464.00
2023-04-08T08:22:01.147Z,464.00
2023-04-08T08:23:01.166Z,464.00
2023-04-08T08:24:01.176Z,465.00
2023-04-08T08:25:01.250Z,464.00
2023-04-08T08:26:01.208Z,462.00
2023-04-08T08:27:01.261Z,464.00
2023-04-08T08:28:01.277Z,463.00
2023-04-08T08:29:01.291Z,462.00
2023-04-08T08:30:01.295Z,461.00
2023-04-08T08:31:01.366Z,462.00
2023-04-08T08:32:01.362Z,462.00
2023-04-08T08:33:01.398Z,464.00
2023-04-08T08:34:01.337Z,463.00
2023-04-08T08:35:01.376Z,463.00
2023-04-08T08:36:01.405Z,462.00
2023-04-08T08:37:01.398Z,462.00
2023-04-08T08:38:01.379Z,462.00
2023-04-08T08:39:01.380Z,463.00
2023-04-08T08:40:01.404Z,462.00
2023-04-08T08:41:01.412Z,464.00
2023-04-08T08:42:01.467Z,464.00
2023-04-08T08:43:01.430Z,467.00
2023-04-08T08:44:01.486Z,465.00
2023-04-08T08:45:01.449Z,466.00
2023-04-08T08:46:01.464Z,465.00
2023-04-08T08:47:01.577Z,465.00
2023-04-08T08:48:01.599Z,465.00
2023-04-08T08:49:01.521Z,465.00
2023-04-08T08:50:01.504Z,467.00
2023-04-08T08:51:01.546Z,466.00
2023-04-08T08:52:01.546Z,464.00
2023-04-08T08:53:01.545Z,465.00
2023-04-08T08:54:01.540Z,466.00
2023-04-08T08:55:01.527Z,466.00
2023-04-08T08:56:17.103Z,465.00
2023-04-08T08:57:02.518Z,465.00
2023-04-08T08:58:01.533Z,465.00
2023-04-08T08:59:01.515Z,464.00
2023-04-08T09:00:01.497Z,464.00
2023-04-08T09:01:01.503Z,463.00
2023-04-08T09:02:01.550Z,462.00
2023-04-08T09:03:01.592Z,463.00
2023-04-08T09:04:01.518Z,464.00
2023-04-08T09:05:01.602Z,464.00
2023-04-08T09:06:01.485Z,464.00
2023-04-08T09:07:01.442Z,464.00
2023-04-08T09:08:01.458Z,465.00
2023-04-08T09:09:01.476Z,467.00
2023-04-08T09:10:01.432Z,468.00
2023-04-08T09:11:01.466Z,467.00
2023-04-08T09:12:01.430Z,466.00
2023-04-08T09:13:01.413Z,466.00
2023-04-08T09:14:01.448Z,467.00
2023-04-08T09:15:01.447Z,467.00
2023-04-08T09:16:01.437Z,468.00
2023-04-08T09:17:01.369Z,468.00
2023-04-08T09:18:01.408Z,467.00
2023-04-08T09:19:01.393Z,465.00
2023-04-08T09:20:01.381Z,465.00
2023-04-08T09:21:01.376Z,462.00
2023-04-08T09:22:01.356Z,462.00
2023-04-08T09:23:01.337Z,462.00
2023-04-08T09:24:01.318Z,462.00
2023-04-08T09:25:01.364Z,462.00
2023-04-08T09:26:01.302Z,461.00
2023-04-08T09:27:01.322Z,461.00
2023-04-08T09:28:01.352Z,460.00
2023-04-08T09:29:08.226Z,461.00
2023-04-08T09:30:02.285Z,464.00
2023-04-08T09:31:01.260Z,465.00
2023-04-08T09:32:01.412Z,464.00
2023-04-08T09:33:01.290Z,462.00
2023-04-08T09:34:01.281Z,462.00
2023-04-08T09:35:01.270Z,459.00
2023-04-08T09:36:01.246Z,459.00
2023-04-08T09:37:01.231Z,459.00
2023-04-08T09:38:01.235Z,458.00
2023-04-08T09:39:01.323Z,458.00
2023-04-08T09:40:01.213Z,458.00
2023-04-08T09:41:01.216Z,458.00
2023-04-08T09:42:01.358Z,458.00
2023-04-08T09:43:01.223Z,458.00
2023-04-08T09:44:01.182Z,459.00
2023-04-08T09:45:01.182Z,457.00
2023-04-08T09:46:01.241Z,457.00
2023-04-08T09:47:01.168Z,458.00
2023-04-08T09:48:01.255Z,458.00
2023-04-08T09:49:01.160Z,458.00
2023-04-08T09:50:01.165Z,458.00
2023-04-08T09:51:01.148Z,460.00
2023-04-08T09:52:01.135Z,461.00
2023-04-08T09:53:01.123Z,460.00
2023-04-08T09:54:01.147Z,460.00
2023-04-08T09:55:01.107Z,463.00
2023-04-08T09:56:01.102Z,461.00
2023-04-08T09:57:01.106Z,461.00
2023-04-08T09:58:01.086Z,460.00
2023-04-08T09:59:01.143Z,461.00
2023-04-08T10:00:01.051Z,461.00
2023-04-08T10:01:01.129Z,461.00
2023-04-08T10:02:01.157Z,460.00
2023-04-08T10:03:01.252Z,460.00
2023-04-08T10:04:01.072Z,458.00
2023-04-08T10:05:01.176Z,457.00
2023-04-08T10:06:01.024Z,457.00
2023-04-08T10:07:01.004Z,456.00
2023-04-08T10:08:01.032Z,458.00
2023-04-08T10:09:01.012Z,458.00
2023-04-08T10:10:01.012Z,459.00
2023-04-08T10:11:01.008Z,460.00
2023-04-08T10:12:00.980Z,460.00
2023-04-08T10:13:01.020Z,459.00
2023-04-08T10:14:00.974Z,454.00
2023-04-08T10:15:00.979Z,454.00
2023-04-08T10:16:00.982Z,454.00
2023-04-08T10:17:01.024Z,454.00
2023-04-08T10:18:01.029Z,456.00
2023-04-08T10:19:00.933Z,455.00
2023-04-08T10:20:00.930Z,454.00
2023-04-08T10:21:00.905Z,456.00
2023-04-08T10:22:00.978Z,461.00
2023-04-08T10:23:00.902Z,464.00
2023-04-08T10:24:00.927Z,465.00
2023-04-08T10:25:00.912Z,466.00
2023-04-08T10:26:00.884Z,465.00
2023-04-08T10:27:00.905Z,464.00
2023-04-08T10:28:00.854Z,463.00
2023-04-08T10:29:00.874Z,462.00
2023-04-08T10:30:00.875Z,461.00
2023-04-08T10:31:00.829Z,462.00
2023-04-08T10:32:00.895Z,464.00
2023-04-08T10:33:00.900Z,465.00
2023-04-08T10:34:00.832Z,464.00
2023-04-08T10:35:00.820Z,463.00
2023-04-08T10:36:00.831Z,462.00
2023-04-08T10:37:00.813Z,465.00
2023-04-08T10:38:00.804Z,465.00
2023-04-08T10:39:00.808Z,464.00
2023-04-08T10:40:00.806Z,464.00
2023-04-08T10:41:00.814Z,463.00
2023-04-08T10:42:00.813Z,466.00
2023-04-08T10:43:00.826Z,466.00
2023-04-08T10:44:00.803Z,466.00
2023-04-08T10:45:00.820Z,466.00
2023-04-08T10:46:00.899Z,466.00
2023-04-08T10:47:00.810Z,466.00
2023-04-08T10:48:00.983Z,468.00
2023-04-08T10:49:00.858Z,467.00
2023-04-08T10:50:00.859Z,468.00
2023-04-08T10:51:00.876Z,466.00
2023-04-08T10:52:00.921Z,464.00
2023-04-08T10:53:00.897Z,464.00
2023-04-08T10:54:00.897Z,466.00
2023-04-08T10:55:00.973Z,467.00
2023-04-08T10:56:00.936Z,467.00
2023-04-08T10:57:00.923Z,467.00
2023-04-08T10:58:00.972Z,467.00
2023-04-08T10:59:00.975Z,470.00
2023-04-08T11:00:00.982Z,469.00
2023-04-08T11:01:01.065Z,470.00
2023-04-08T11:02:01.209Z,466.00
2023-04-08T11:03:01.183Z,467.00
2023-04-08T11:04:01.082Z,467.00
2023-04-08T11:05:01.072Z,466.00
2023-04-08T11:06:01.066Z,466.00
2023-04-08T11:07:01.074Z,467.00
2023-04-08T11:08:01.097Z,467.00
2023-04-08T11:09:01.148Z,469.00
2023-04-08T11:10:01.143Z,472.00
2023-04-08T11:11:01.120Z,473.00
2023-04-08T11:12:01.440Z,472.00
2023-04-08T11:13:01.140Z,473.00
2023-04-08T11:14:01.191Z,474.00
2023-04-08T11:15:01.157Z,475.00
2023-04-08T11:16:01.291Z,473.00
2023-04-08T11:17:01.190Z,476.00
2023-04-08T11:18:01.251Z,476.00
2023-04-08T11:19:01.194Z,476.00
2023-04-08T11:20:01.212Z,475.00
2023-04-08T11:21:01.227Z,476.00
2023-04-08T11:22:01.255Z,474.00
2023-04-08T11:23:01.277Z,470.00
2023-04-08T11:24:01.282Z,468.00
2023-04-08T11:25:01.268Z,470.00
2023-04-08T11:26:01.266Z,471.00
2023-04-08T11:27:01.277Z,469.00
2023-04-08T11:28:01.297Z,468.00
2023-04-08T11:29:01.326Z,469.00
2023-04-08T11:30:01.315Z,466.00
2023-04-08T11:31:01.371Z,467.00
2023-04-08T11:32:01.347Z,469.00
2023-04-08T11:33:01.394Z,470.00
2023-04-08T11:34:01.332Z,468.00
2023-04-08T11:35:01.343Z,467.00
2023-04-08T11:36:01.419Z,467.00
2023-04-08T11:37:01.350Z,467.00
2023-04-08T11:38:01.363Z,467.00
2023-04-08T11:39:01.411Z,466.00
2023-04-08T11:40:01.340Z,463.00
2023-04-08T11:41:01.385Z,462.00
2023-04-08T11:42:01.383Z,465.00
2023-04-08T11:43:01.353Z,465.00
2023-04-08T11:44:01.360Z,463.00
2023-04-08T11:45:01.413Z,464.00
2023-04-08T11:46:01.366Z,465.00
2023-04-08T11:47:01.447Z,466.00
2023-04-08T11:48:03.006Z,465.00
2023-04-08T11:49:01.357Z,464.00
2023-04-08T11:50:01.395Z,463.00
2023-04-08T11:51:01.338Z,460.00
2023-04-08T11:52:01.351Z,458.00
2023-04-08T11:53:01.311Z,459.00
2023-04-08T11:54:01.309Z,458.00
2023-04-08T11:55:01.334Z,457.00
2023-04-08T11:56:01.319Z,455.00
2023-04-08T11:57:01.340Z,456.00
2023-04-08T11:58:01.289Z,457.00
2023-04-08T11:59:01.294Z,458.00
2023-04-08T12:00:01.268Z,456.00
2023-04-08T12:01:01.281Z,455.00
2023-04-08T12:02:01.298Z,455.00
2023-04-08T12:03:01.339Z,455.00
2023-04-08T12:04:01.403Z,453.00
2023-04-08T12:05:01.275Z,451.00
2023-04-08T12:06:01.252Z,451.00
2023-04-08T12:07:01.239Z,454.00
2023-04-08T12:08:01.232Z,455.00
2023-04-08T12:09:01.209Z,454.00
2023-04-08T12:10:01.211Z,454.00
2023-04-08T12:11:12.866Z,455.00
2023-04-08T12:12:02.214Z,457.00
2023-04-08T12:13:01.186Z,456.00
2023-04-08T12:14:01.153Z,457.00
2023-04-08T12:15:01.162Z,459.00
2023-04-08T12:16:01.197Z,460.00
2023-04-08T12:17:01.207Z,459.00
2023-04-08T12:18:01.211Z,456.00
2023-04-08T12:19:01.184Z,457.00
2023-04-08T12:20:01.099Z,459.00
2023-04-08T12:21:01.131Z,458.00
2023-04-08T12:22:01.129Z,458.00
2023-04-08T12:23:01.090Z,457.00
2023-04-08T12:24:01.093Z,457.00
2023-04-08T12:25:01.059Z,456.00
2023-04-08T12:26:01.085Z,457.00
2023-04-08T12:27:01.090Z,461.00
2023-04-08T12:28:01.061Z,457.00
2023-04-08T12:29:01.089Z,459.00